createdAt,value
2022-07-30T00:00:32.772Z,5.60
2022-07-30T00:02:59.971Z,7.78
2022-07-30T00:05:27.204Z,5.53
2022-07-30T00:07:54.392Z,7.53
2022-07-30T00:10:23.281Z,5.72
2022-07-30T00:12:50.884Z,4.55
2022-07-30T00:15:18.646Z,6.20
2022-07-30T00:17:46.705Z,5.55
2022-07-30T00:20:16.983Z,6.15
2022-07-30T00:22:45.874Z,5.57
2022-07-30T00:25:13.745Z,5.68
2022-07-30T00:27:40.997Z,6.50
2022-07-30T00:30:08.784Z,6.25
2022-07-30T00:32:36.140Z,5.95
2022-07-30T00:35:03.917Z,6.00
2022-07-30T00:37:31.398Z,6.15
2022-07-30T00:39:58.623Z,8.07
2022-07-30T00:42:41.552Z,5.97
2022-07-30T00:45:10.344Z,5.03
2022-07-30T00:47:38.876Z,4.35
2022-07-30T00:50:08.216Z,5.95
2022-07-30T00:52:38.660Z,4.88
2022-07-30T00:55:09.378Z,4.47
2022-07-30T00:57:36.934Z,4.53
2022-07-30T01:00:10.261Z,7.95
2022-07-30T01:02:38.247Z,5.40
2022-07-30T01:05:06.654Z,24.80
2022-07-30T01:07:34.993Z,5.35
2022-07-30T01:10:02.447Z,6.07
2022-07-30T01:12:29.993Z,3.78
2022-07-30T01:14:58.802Z,6.90
2022-07-30T01:17:26.464Z,5.53
2022-07-30T01:20:01.093Z,5.15
2022-07-30T01:22:31.340Z,4.35
2022-07-30T01:24:58.765Z,6.25
2022-07-30T01:27:29.008Z,4.57
2022-07-30T01:29:57.473Z,4.90
2022-07-30T01:32:27.142Z,4.05
2022-07-30T01:34:57.803Z,4.43
2022-07-30T01:37:27.136Z,3.65
2022-07-30T01:39:55.048Z,6.70
2022-07-30T01:42:26.046Z,4.40
2022-07-30T01:44:54.601Z,5.35
2022-07-30T01:47:25.309Z,5.80
2022-07-30T01:49:55.155Z,4.55
2022-07-30T01:52:23.730Z,4.72
2022-07-30T01:54:52.845Z,5.03
2022-07-30T01:57:21.672Z,6.45
2022-07-30T01:59:52.334Z,4.47
2022-07-30T02:02:20.486Z,6.87
2022-07-30T02:04:48.125Z,7.78
2022-07-30T02:07:24.069Z,4.80
2022-07-30T02:09:58.958Z,6.63
2022-07-30T02:12:30.375Z,4.13
2022-07-30T02:15:12.023Z,5.32
2022-07-30T02:18:04.154Z,6.20
2022-07-30T02:20:35.983Z,4.15
2022-07-30T02:23:10.771Z,6.07
2022-07-30T02:25:42.541Z,7.25
2022-07-30T02:28:13.492Z,13.45
2022-07-30T02:30:55.747Z,4.57
2022-07-30T02:33:41.206Z,5.55
2022-07-30T02:36:19.086Z,5.22
2022-07-30T02:38:47.730Z,4.78
2022-07-30T02:41:15.707Z,3.83
2022-07-30T02:43:43.929Z,3.65
2022-07-30T02:46:15.086Z,3.90
2022-07-30T02:49:14.136Z,4.45
2022-07-30T02:51:43.744Z,6.07
2022-07-30T02:54:13.035Z,4.68
2022-07-30T02:56:42.140Z,3.70
2022-07-30T02:59:11.720Z,5.50
2022-07-30T03:01:39.731Z,3.88
2022-07-30T03:04:09.293Z,4.60
2022-07-30T03:06:37.244Z,5.75
2022-07-30T03:09:05.705Z,7.78
2022-07-30T03:11:34.734Z,4.65
2022-07-30T03:14:02.611Z,4.68
2022-07-30T03:16:33.773Z,7.07
2022-07-30T03:19:02.960Z,3.40
2022-07-30T03:21:35.846Z,5.70
2022-07-30T03:24:05.423Z,5.93
2022-07-30T03:26:35.242Z,6.03
2022-07-30T03:29:05.057Z,5.13
2022-07-30T03:31:36.318Z,6.03
2022-07-30T03:34:12.694Z,7.03
2022-07-30T03:36:42.158Z,5.55
2022-07-30T03:39:10.575Z,4.53
2022-07-30T03:41:39.852Z,5.20
2022-07-30T03:44:11.754Z,5.00
2022-07-30T03:46:40.798Z,4.68
2022-07-30T03:49:10.867Z,4.60
2022-07-30T03:51:42.801Z,3.50
2022-07-30T03:54:13.680Z,5.43
2022-07-30T03:56:42.109Z,6.35
2022-07-30T03:59:33.584Z,3.85
2022-07-30T04:02:07.611Z,3.92
2022-07-30T04:05:07.697Z,6.25
2022-07-30T04:07:35.171Z,4.82
2022-07-30T04:10:12.322Z,4.10
2022-07-30T04:13:05.427Z,4.18
2022-07-30T04:16:16.725Z,4.90
2022-07-30T04:18:38.844Z,4.40
2022-07-30T04:21:16.117Z,7.35
2022-07-30T04:24:02.352Z,5.53
2022-07-30T04:26:35.166Z,6.95
2022-07-30T04:29:08.797Z,5.60
2022-07-30T04:31:40.650Z,8.05
2022-07-30T04:34:51.087Z,6.38
2022-07-30T04:37:27.581Z,6.03
2022-07-30T04:39:57.978Z,3.40
2022-07-30T04:42:26.636Z,5.65
2022-07-30T04:45:05.857Z,4.38
2022-07-30T04:47:55.747Z,3.90
2022-07-30T04:50:43.796Z,5.25
2022-07-30T04:53:13.966Z,5.47
2022-07-30T04:55:49.043Z,3.85
2022-07-30T04:58:20.138Z,5.05
2022-07-30T05:00:49.390Z,5.60
2022-07-30T05:03:22.027Z,3.40
2022-07-30T05:05:57.604Z,4.30
2022-07-30T05:08:27.333Z,3.72
2022-07-30T05:10:55.375Z,4.68
2022-07-30T05:13:23.343Z,5.70
2022-07-30T05:16:03.165Z,4.75
2022-07-30T05:18:30.500Z,3.15
2022-07-30T05:20:57.896Z,3.22
2022-07-30T05:23:50.400Z,4.43
2022-07-30T05:26:27.777Z,2.65
2022-07-30T05:28:57.392Z,3.35
2022-07-30T05:31:49.156Z,4.55
2022-07-30T05:34:17.485Z,3.42
2022-07-30T05:36:46.242Z,3.80
2022-07-30T05:39:17.153Z,4.30
2022-07-30T05:41:55.483Z,3.35
2022-07-30T05:44:28.677Z,4.40
2022-07-30T05:46:56.098Z,4.45
2022-07-30T05:49:24.048Z,2.85
2022-07-30T05:51:53.059Z,3.70
2022-07-30T05:54:20.653Z,3.65
2022-07-30T05:57:10.711Z,4.47
2022-07-30T05:59:39.066Z,3.53
2022-07-30T06:02:09.191Z,3.85
2022-07-30T06:04:52.561Z,3.08
2022-07-30T06:07:19.986Z,4.10
2022-07-30T06:09:47.788Z,3.10
2022-07-30T06:12:15.307Z,3.45
2022-07-30T06:14:43.201Z,3.72
2022-07-30T06:17:15.569Z,4.30
2022-07-30T06:20:02.657Z,4.05
2022-07-30T06:22:33.861Z,3.57
2022-07-30T06:25:09.083Z,2.75
2022-07-30T06:27:39.718Z,4.97
2022-07-30T06:30:12.183Z,4.63
2022-07-30T06:32:39.448Z,4.43
2022-07-30T06:35:07.564Z,4.03
2022-07-30T06:38:05.647Z,3.30
2022-07-30T06:40:25.839Z,4.07
2022-07-30T06:43:21.441Z,3.97
2022-07-30T06:46:18.262Z,2.85
2022-07-30T06:48:49.324Z,4.88
2022-07-30T06:51:16.722Z,4.40
2022-07-30T06:53:46.142Z,4.57
2022-07-30T06:56:14.190Z,6.32
2022-07-30T06:59:01.767Z,6.03
2022-07-30T07:01:48.383Z,7.93
2022-07-30T07:04:16.149Z,9.90
2022-07-30T07:06:43.576Z,5.90
2022-07-30T07:12:00.728Z,6.75
2022-07-30T07:14:28.130Z,9.02
2022-07-30T07:16:55.592Z,5.15
2022-07-30T07:20:01.254Z,7.10
2022-07-30T07:22:30.696Z,6.80
2022-07-30T07:24:58.121Z,10.63
2022-07-30T07:27:29.086Z,6.05
2022-07-30T07:30:05.525Z,5.10
2022-07-30T07:32:36.956Z,9.73
2022-07-30T07:35:06.386Z,4.43
2022-07-30T07:37:36.320Z,6.03
2022-07-30T07:40:06.498Z,5.45
2022-07-30T07:42:38.429Z,5.38
2022-07-30T07:45:08.174Z,5.30
2022-07-30T07:47:51.494Z,6.05
2022-07-30T07:50:36.130Z,7.10
2022-07-30T07:53:04.405Z,6.57
2022-07-30T07:55:33.610Z,5.97
2022-07-30T07:58:01.689Z,7.78
2022-07-30T08:00:30.547Z,7.15
2022-07-30T08:02:58.158Z,8.43
2022-07-30T08:05:25.805Z,6.13
2022-07-30T08:08:29.073Z,4.20
2022-07-30T08:11:31.397Z,8.85
2022-07-30T08:14:17.696Z,10.27
2022-07-30T08:17:20.264Z,5.38
2022-07-30T08:20:11.138Z,6.45
2022-07-30T08:22:38.687Z,10.25
2022-07-30T08:25:07.197Z,4.88
2022-07-30T08:27:34.863Z,7.18
2022-07-30T08:30:07.245Z,6.75
2022-07-30T08:35:08.229Z,8.13
2022-07-30T08:37:35.544Z,4.83
2022-07-30T08:40:04.801Z,7.88
2022-07-30T08:42:35.196Z,7.38
2022-07-30T08:45:02.979Z,6.78
2022-07-30T08:47:34.667Z,5.53
2022-07-30T08:50:21.204Z,5.85
2022-07-30T08:53:25.503Z,7.25
2022-07-30T08:55:58.599Z,5.53
2022-07-30T08:58:27.089Z,8.10
2022-07-30T09:03:22.064Z,7.32
2022-07-30T09:05:50.147Z,4.35
2022-07-30T09:08:17.738Z,6.38
2022-07-30T09:10:52.788Z,5.43
2022-07-30T09:13:28.549Z,4.60
2022-07-30T09:15:59.216Z,4.15
2022-07-30T09:18:41.421Z,4.78
2022-07-30T09:21:19.123Z,4.63
2022-07-30T09:24:12.771Z,4.32
2022-07-30T09:27:01.077Z,4.18
2022-07-30T09:29:58.621Z,4.38
2022-07-30T09:32:55.304Z,6.28
2022-07-30T09:35:45.593Z,4.95
2022-07-30T09:38:13.355Z,4.75
2022-07-30T09:40:57.780Z,4.63
2022-07-30T09:43:46.132Z,3.78
2022-07-30T09:46:21.450Z,5.28
2022-07-30T09:48:49.748Z,5.03
2022-07-30T09:51:19.283Z,8.40
2022-07-30T09:54:00.244Z,4.50
2022-07-30T09:56:30.822Z,5.90
2022-07-30T09:59:00.712Z,7.07
2022-07-30T10:01:49.464Z,11.95
2022-07-30T10:04:41.099Z,9.85
2022-07-30T10:07:25.657Z,8.98
2022-07-30T10:10:00.494Z,11.77
2022-07-30T10:12:29.299Z,9.90
2022-07-30T10:15:02.127Z,12.02
2022-07-30T10:17:34.762Z,12.50
2022-07-30T10:20:18.244Z,17.40
2022-07-30T10:23:09.043Z,12.25
2022-07-30T10:25:49.083Z,10.70
2022-07-30T10:28:42.063Z,11.90
2022-07-30T10:31:46.873Z,12.82
2022-07-30T10:33:57.712Z,14.23
2022-07-30T10:36:26.784Z,16.40
2022-07-30T10:38:55.439Z,12.18
2022-07-30T10:41:59.581Z,15.15
2022-07-30T10:44:42.105Z,21.83
2022-07-30T10:49:41.504Z,19.30
2022-07-30T10:52:12.056Z,18.38
2022-07-30T10:54:47.617Z,14.30
2022-07-30T10:57:22.579Z,14.02
2022-07-30T11:00:04.466Z,15.07
2022-07-30T11:02:35.750Z,15.40
2022-07-30T11:05:37.444Z,15.93
2022-07-30T11:08:31.903Z,16.63
2022-07-30T11:11:19.521Z,16.08
2022-07-30T11:14:01.176Z,16.60
2022-07-30T11:16:34.516Z,16.77
2022-07-30T11:22:27.311Z,18.77
2022-07-30T11:24:55.513Z,17.15
2022-07-30T11:27:49.133Z,18.17
2022-07-30T11:30:16.993Z,16.70
2022-07-30T11:32:52.818Z,17.90
2022-07-30T11:35:26.181Z,16.83
2022-07-30T11:38:13.280Z,14.82
2022-07-30T11:41:03.595Z,16.33
2022-07-30T11:43:37.008Z,11.60
2022-07-30T11:46:16.432Z,14.98
2022-07-30T11:49:05.910Z,15.07
2022-07-30T11:51:47.019Z,15.45
2022-07-30T11:54:15.078Z,14.65
2022-07-30T11:56:53.493Z,14.43
2022-07-30T11:59:21.007Z,10.65
2022-07-30T12:01:53.168Z,11.30
2022-07-30T12:06:49.055Z,14.93
2022-07-30T12:09:27.303Z,16.38
2022-07-30T12:11:56.051Z,17.52
2022-07-30T12:14:23.386Z,17.50
2022-07-30T12:16:55.217Z,18.40
2022-07-30T12:19:22.535Z,17.20
2022-07-30T12:21:53.422Z,19.40
2022-07-30T12:24:26.546Z,15.00
2022-07-30T12:27:03.801Z,15.60
2022-07-30T12:29:32.474Z,14.98
2022-07-30T12:31:59.896Z,16.83
2022-07-30T12:34:27.855Z,15.68
2022-07-30T12:36:55.850Z,13.15
2022-07-30T12:39:26.061Z,11.98
2022-07-30T12:41:58.710Z,12.25
2022-07-30T12:44:44.912Z,12.07
2022-07-30T12:47:29.413Z,13.27
2022-07-30T12:50:01.580Z,13.35
2022-07-30T12:52:34.832Z,11.32
2022-07-30T12:55:09.173Z,12.85
2022-07-30T12:57:53.427Z,10.05
2022-07-30T13:00:21.461Z,8.43
2022-07-30T13:02:48.928Z,8.65
2022-07-30T13:05:16.093Z,6.85
2022-07-30T13:08:00.677Z,6.07
2022-07-30T13:10:31.481Z,8.25
2022-07-30T13:12:59.780Z,8.30
2022-07-30T13:15:27.131Z,6.90
2022-07-30T13:17:54.528Z,8.10
2022-07-30T13:20:22.214Z,8.02
2022-07-30T13:22:49.462Z,6.93
2022-07-30T13:25:16.692Z,7.53
2022-07-30T13:27:43.999Z,7.55
2022-07-30T13:30:11.677Z,7.22
2022-07-30T13:32:38.973Z,6.05
2022-07-30T13:35:06.683Z,5.25
2022-07-30T13:37:38.372Z,6.20
2022-07-30T13:40:07.087Z,6.38
2022-07-30T13:42:34.474Z,5.65
2022-07-30T13:45:01.810Z,5.63
2022-07-30T13:47:29.577Z,6.05
2022-07-30T13:49:56.965Z,4.32
2022-07-30T13:52:24.319Z,3.83
2022-07-30T13:54:52.628Z,2.78
2022-07-30T13:57:20.558Z,4.10
2022-07-30T13:59:47.977Z,2.95
2022-07-30T14:02:15.352Z,1.20
2022-07-30T14:04:42.776Z,1.48
2022-07-30T14:07:10.078Z,0.98
2022-07-30T14:09:44.927Z,1.15
2022-07-30T14:12:15.285Z,4.15
2022-07-30T14:14:42.620Z,1.35
2022-07-30T14:17:09.945Z,0.90
2022-07-30T14:19:37.212Z,0.95
2022-07-30T14:22:04.602Z,1.95
2022-07-30T14:24:31.697Z,0.60
2022-07-30T14:26:59.052Z,0.82
2022-07-30T14:29:27.478Z,1.13
2022-07-30T14:31:55.672Z,0.88
2022-07-30T14:34:23.319Z,1.13
2022-07-30T14:36:51.050Z,0.90
2022-07-30T14:39:18.421Z,0.60
2022-07-30T14:41:45.604Z,1.77
2022-07-30T14:44:14.010Z,1.17
2022-07-30T14:46:52.335Z,2.17
2022-07-30T14:49:21.544Z,1.33
2022-07-30T14:51:50.335Z,1.02
2022-07-30T14:54:17.940Z,0.30
2022-07-30T14:56:45.535Z,0.70
2022-07-30T14:59:13.216Z,1.30
2022-07-30T15:01:42.178Z,0.50
2022-07-30T15:04:12.856Z,0.50
2022-07-30T15:06:44.202Z,1.70
2022-07-30T15:09:11.800Z,0.50
2022-07-30T15:12:07.961Z,0.40
2022-07-30T15:14:28.358Z,0.35
2022-07-30T15:17:02.047Z,0.35
2022-07-30T15:19:31.614Z,0.70
2022-07-30T15:22:02.689Z,0.70
2022-07-30T15:24:31.350Z,0.68
2022-07-30T15:26:59.358Z,0.60
2022-07-30T15:29:29.565Z,1.33
2022-07-30T15:31:59.251Z,0.93
2022-07-30T15:34:27.865Z,0.98
2022-07-30T15:36:55.395Z,0.60
2022-07-30T15:39:22.728Z,1.33
2022-07-30T15:41:52.793Z,0.70
2022-07-30T15:44:22.644Z,1.27
2022-07-30T15:46:50.117Z,1.33
2022-07-30T15:49:17.547Z,0.80
2022-07-30T15:51:49.127Z,1.10
2022-07-30T15:54:22.445Z,0.90
2022-07-30T15:56:51.318Z,0.90
2022-07-30T15:59:18.792Z,0.93
2022-07-30T16:01:46.236Z,1.88
2022-07-30T16:04:19.151Z,1.08
2022-07-30T16:06:53.635Z,0.82
2022-07-30T16:09:21.089Z,1.83
2022-07-30T16:11:49.751Z,1.00
2022-07-30T16:14:17.157Z,1.67
2022-07-30T16:16:44.672Z,0.40
2022-07-30T16:19:12.235Z,0.90
2022-07-30T16:21:39.773Z,0.90
2022-07-30T16:24:07.512Z,0.85
2022-07-30T16:26:37.450Z,0.70
2022-07-30T16:29:06.486Z,1.55
2022-07-30T16:31:39.412Z,0.63
2022-07-30T16:34:07.383Z,0.82
2022-07-30T16:36:34.816Z,0.40
2022-07-30T16:39:02.253Z,0.70
2022-07-30T16:41:29.739Z,1.50
2022-07-30T16:43:57.269Z,1.00
2022-07-30T16:46:25.096Z,5.18
2022-07-30T16:48:52.417Z,5.60
2022-07-30T16:51:19.722Z,3.70
2022-07-30T16:53:48.876Z,3.13
2022-07-30T16:56:19.465Z,5.40
2022-07-30T16:58:46.857Z,1.42
2022-07-30T17:01:14.260Z,1.00
2022-07-30T17:03:41.753Z,1.08
2022-07-30T17:06:09.122Z,1.30
2022-07-30T17:08:36.628Z,2.67
2022-07-30T17:11:09.340Z,1.00
2022-07-30T17:13:37.941Z,0.73
2022-07-30T17:16:07.340Z,1.23
2022-07-30T17:18:34.709Z,0.70
2022-07-30T17:21:02.063Z,1.80
2022-07-30T17:23:29.446Z,2.47
2022-07-30T17:25:56.863Z,0.80
2022-07-30T17:28:27.189Z,5.28
2022-07-30T17:30:55.289Z,10.98
2022-07-30T17:33:22.565Z,13.18
2022-07-30T17:35:50.010Z,22.30
2022-07-30T17:38:17.559Z,24.98
2022-07-30T17:40:44.862Z,9.88
2022-07-30T17:43:14.146Z,2.47
2022-07-30T17:45:42.486Z,14.55
2022-07-30T17:48:09.843Z,30.95
2022-07-30T17:50:37.357Z,30.90
2022-07-30T17:53:06.043Z,24.38
2022-07-30T17:55:35.604Z,16.45
2022-07-30T17:58:04.944Z,30.25
2022-07-30T18:00:34.909Z,38.13
2022-07-30T18:03:02.823Z,9.07
2022-07-30T18:05:30.191Z,7.22
2022-07-30T18:07:57.592Z,17.67
2022-07-30T18:10:25.414Z,25.08
2022-07-30T18:12:52.811Z,15.55
2022-07-30T18:15:20.989Z,18.05
2022-07-30T18:17:48.472Z,41.10
2022-07-30T18:20:16.105Z,10.75
2022-07-30T18:22:43.606Z,8.90
2022-07-30T18:25:17.866Z,7.57
2022-07-30T18:27:47.439Z,8.20
2022-07-30T18:30:15.304Z,14.95
2022-07-30T18:32:43.855Z,5.60
2022-07-30T18:35:14.558Z,3.90
2022-07-30T18:37:44.154Z,6.03
2022-07-30T18:40:13.122Z,4.40
2022-07-30T18:42:40.860Z,2.83
2022-07-30T18:45:10.568Z,2.40
2022-07-30T18:47:38.117Z,1.95
2022-07-30T18:50:06.377Z,3.65
2022-07-30T18:52:34.494Z,3.92
2022-07-30T18:55:02.501Z,3.33
2022-07-30T18:57:29.816Z,3.92
2022-07-30T18:59:57.221Z,2.85
2022-07-30T19:02:25.933Z,2.65
2022-07-30T19:04:54.121Z,2.88
2022-07-30T19:07:21.725Z,3.63
2022-07-30T19:09:49.422Z,1.75
2022-07-30T19:12:16.832Z,2.38
2022-07-30T19:14:44.753Z,9.45
2022-07-30T19:17:13.971Z,3.10
2022-07-30T19:19:43.605Z,6.28
2022-07-30T19:22:10.951Z,4.10
2022-07-30T19:24:38.489Z,2.55
2022-07-30T19:27:08.184Z,2.88
2022-07-30T19:29:38.952Z,1.73
2022-07-30T19:32:06.767Z,1.80
2022-07-30T19:34:35.092Z,2.00
2022-07-30T19:37:02.634Z,1.70
2022-07-30T19:39:30.319Z,2.78
2022-07-30T19:42:03.326Z,2.97
2022-07-30T19:44:31.453Z,2.53
2022-07-30T19:46:59.987Z,2.40
2022-07-30T19:49:29.664Z,2.72
2022-07-30T19:52:09.903Z,3.65
2022-07-30T19:54:45.155Z,3.47
2022-07-30T19:57:12.778Z,3.97
2022-07-30T19:59:45.301Z,3.00
2022-07-30T20:02:27.320Z,3.75
2022-07-30T20:04:55.583Z,3.17
2022-07-30T20:07:23.402Z,4.05
2022-07-30T20:09:55.439Z,3.00
2022-07-30T20:15:13.977Z,4.32
2022-07-30T20:17:42.459Z,2.67
2022-07-30T20:20:11.240Z,4.32
2022-07-30T20:22:38.768Z,3.42
2022-07-30T20:25:08.461Z,4.07
2022-07-30T20:27:38.340Z,2.58
2022-07-30T20:30:08.338Z,4.72
2022-07-30T20:32:46.246Z,4.65
2022-07-30T20:35:14.215Z,5.85
2022-07-30T20:37:55.070Z,3.70
2022-07-30T20:40:26.698Z,3.20
2022-07-30T20:42:55.051Z,4.25
2022-07-30T20:48:17.335Z,4.53
2022-07-30T20:50:52.681Z,4.90
2022-07-30T20:53:22.284Z,4.55
2022-07-30T20:55:50.756Z,4.15
2022-07-30T20:58:19.994Z,5.80
2022-07-30T21:00:49.513Z,4.90
2022-07-30T21:03:21.252Z,4.20
2022-07-30T21:05:51.255Z,4.80
2022-07-30T21:08:20.805Z,5.00
2022-07-30T21:10:48.014Z,4.30
2022-07-30T21:13:15.310Z,5.60
2022-07-30T21:15:45.504Z,5.35
2022-07-30T21:18:28.489Z,4.82
2022-07-30T21:21:00.621Z,7.30
2022-07-30T21:23:28.226Z,4.45
2022-07-30T21:26:01.053Z,6.40
2022-07-30T21:28:35.520Z,5.60
2022-07-30T21:33:37.071Z,5.70
2022-07-30T21:36:05.842Z,4.68
2022-07-30T21:38:42.522Z,6.20
2022-07-30T21:41:14.067Z,5.28
2022-07-30T21:46:11.283Z,4.75
2022-07-30T21:48:39.660Z,6.80
2022-07-30T21:51:08.651Z,5.15
2022-07-30T21:53:46.296Z,5.28
2022-07-30T21:56:14.850Z,5.28
2022-07-30T21:58:44.480Z,4.32
2022-07-30T22:01:17.509Z,8.00
2022-07-30T22:04:04.604Z,6.43
2022-07-30T22:06:40.130Z,5.90
2022-07-30T22:09:18.845Z,5.57
2022-07-30T22:11:54.716Z,7.82
2022-07-30T22:14:23.214Z,6.63
2022-07-30T22:16:53.228Z,5.10
2022-07-30T22:19:22.071Z,6.60
2022-07-30T22:21:51.199Z,5.32
2022-07-30T22:24:29.509Z,5.65
2022-07-30T22:27:11.744Z,6.57
2022-07-30T22:29:43.655Z,5.05
2022-07-30T22:32:12.523Z,6.05
2022-07-30T22:34:40.394Z,6.38
2022-07-30T22:37:12.557Z,5.22
2022-07-30T22:39:51.035Z,5.88
2022-07-30T22:42:24.075Z,5.07
2022-07-30T22:44:53.177Z,7.22
2022-07-30T22:47:50.378Z,6.10
2022-07-30T22:50:10.675Z,7.70
2022-07-30T22:52:48.991Z,6.63
2022-07-30T22:55:21.969Z,4.55
2022-07-30T22:57:50.341Z,6.70
2022-07-30T23:00:27.274Z,5.90
2022-07-30T23:02:55.570Z,5.28
2022-07-30T23:05:24.114Z,6.07
2022-07-30T23:07:52.005Z,6.10
2022-07-30T23:10:20.386Z,5.93
2022-07-30T23:12:15.970Z,2.95
2022-07-30T23:12:18.952Z,3.22
2022-07-30T23:12:53.985Z,4.75
2022-07-30T23:15:22.505Z,6.60
2022-07-30T23:17:50.224Z,5.22
2022-07-30T23:20:20.666Z,5.65
2022-07-30T23:22:49.275Z,5.50
2022-07-30T23:25:16.641Z,10.32
2022-07-30T23:27:46.956Z,4.72
2022-07-30T23:30:15.750Z,3.67
2022-07-30T23:32:43.042Z,4.13
2022-07-30T23:35:11.169Z,4.07
2022-07-30T23:37:48.509Z,4.50
2022-07-30T23:40:18.968Z,3.33
2022-07-30T23:42:51.088Z,4.97
2022-07-30T23:45:20.501Z,3.80
2022-07-30T23:48:01.931Z,3.38
2022-07-30T23:52:59.327Z,4.40
2022-07-30T23:55:29.898Z,3.42
2022-07-30T23:57:58.370Z,4.93
